sensor_id;sensor_type;location;lat;lon;timestamp;pressure;altitude;pressure_sealevel;temperature;humidity
75585;BME280;64162;53.508;10.476;2023-11-19T00:02:26;100582.94;;;7.01;79.61
75585;BME280;64162;53.508;10.476;2023-11-19T00:04:53;100575.19;;;7.01;80.65
75585;BME280;64162;53.508;10.476;2023-11-19T00:07:19;100564.22;;;7.09;79.87
75585;BME280;64162;53.508;10.476;2023-11-19T00:09:46;100559.66;;;7.40;78.91
75585;BME280;64162;53.508;10.476;2023-11-19T00:12:13;100544.41;;;7.56;78.68
75585;BME280;64162;53.508;10.476;2023-11-19T00:14:39;100548.50;;;7.02;80.19
75585;BME280;64162;53.508;10.476;2023-11-19T00:17:06;100533.56;;;7.15;80.38
75585;BME280;64162;53.508;10.476;2023-11-19T00:19:32;100524.50;;;7.58;78.91
75585;BME280;64162;53.508;10.476;2023-11-19T00:21:59;100519.06;;;7.14;79.30
75585;BME280;64162;53.508;10.476;2023-11-19T00:24:29;100511.34;;;7.14;80.31
75585;BME280;64162;53.508;10.476;2023-11-19T00:26:56;100505.03;;;7.73;78.41
75585;BME280;64162;53.508;10.476;2023-11-19T00:29:23;100510.13;;;7.55;78.80
75585;BME280;64162;53.508;10.476;2023-11-19T00:31:49;100517.66;;;7.29;79.66
75585;BME280;64162;53.508;10.476;2023-11-19T00:34:17;100503.88;;;7.21;80.34
75585;BME280;64162;53.508;10.476;2023-11-19T00:36:47;100496.75;;;6.96;80.78
75585;BME280;64162;53.508;10.476;2023-11-19T00:39:15;100483.09;;;7.32;79.83
75585;BME280;64162;53.508;10.476;2023-11-19T00:41:42;100469.75;;;7.46;79.16
75585;BME280;64162;53.508;10.476;2023-11-19T00:44:08;100476.72;;;7.36;79.12
75585;BME280;64162;53.508;10.476;2023-11-19T00:46:36;100459.69;;;7.25;79.31
75585;BME280;64162;53.508;10.476;2023-11-19T00:49:03;100463.13;;;7.44;79.05
75585;BME280;64162;53.508;10.476;2023-11-19T00:51:29;100455.41;;;7.44;79.37
75585;BME280;64162;53.508;10.476;2023-11-19T00:53:58;100435.47;;;7.18;80.13
75585;BME280;64162;53.508;10.476;2023-11-19T00:56:25;100423.38;;;7.46;79.24
75585;BME280;64162;53.508;10.476;2023-11-19T00:58:52;100437.06;;;7.19;80.29
75585;BME280;64162;53.508;10.476;2023-11-19T01:01:18;100418.22;;;7.28;79.93
75585;BME280;64162;53.508;10.476;2023-11-19T01:03:45;100432.75;;;7.47;79.46
75585;BME280;64162;53.508;10.476;2023-11-19T01:06:12;100404.50;;;7.28;80.19
75585;BME280;64162;53.508;10.476;2023-11-19T01:08:42;100413.81;;;7.11;80.35
75585;BME280;64162;53.508;10.476;2023-11-19T01:11:19;100406.28;;;7.27;79.92
75585;BME280;64162;53.508;10.476;2023-11-19T01:13:48;100401.47;;;7.60;79.19
75585;BME280;64162;53.508;10.476;2023-11-19T01:16:16;100398.19;;;7.40;79.60
75585;BME280;64162;53.508;10.476;2023-11-19T01:18:43;100400.06;;;7.20;80.43
75585;BME280;64162;53.508;10.476;2023-11-19T01:21:09;100387.69;;;7.33;79.93
75585;BME280;64162;53.508;10.476;2023-11-19T01:23:36;100382.22;;;7.37;79.87
75585;BME280;64162;53.508;10.476;2023-11-19T01:26:03;100369.66;;;7.51;79.80
75585;BME280;64162;53.508;10.476;2023-11-19T01:28:31;100372.06;;;7.35;79.57
75585;BME280;64162;53.508;10.476;2023-11-19T01:30:58;100368.34;;;7.47;79.53
75585;BME280;64162;53.508;10.476;2023-11-19T01:33:24;100347.03;;;7.27;80.00
75585;BME280;64162;53.508;10.476;2023-11-19T01:35:51;100327.47;;;7.34;79.96
75585;BME280;64162;53.508;10.476;2023-11-19T01:38:18;100310.31;;;7.25;80.46
75585;BME280;64162;53.508;10.476;2023-11-19T01:40:44;100300.38;;;7.30;80.20
75585;BME280;64162;53.508;10.476;2023-11-19T01:43:11;100303.41;;;7.61;78.80
75585;BME280;64162;53.508;10.476;2023-11-19T01:45:38;100281.78;;;7.19;80.53
75585;BME280;64162;53.508;10.476;2023-11-19T01:48:05;100274.38;;;7.33;80.03
75585;BME280;64162;53.508;10.476;2023-11-19T01:50:33;100289.44;;;7.28;80.55
75585;BME280;64162;53.508;10.476;2023-11-19T01:52:59;100289.34;;;7.56;79.15
75585;BME280;64162;53.508;10.476;2023-11-19T01:55:27;100295.41;;;7.47;79.55
75585;BME280;64162;53.508;10.476;2023-11-19T01:57:59;100279.69;;;7.05;80.74
75585;BME280;64162;53.508;10.476;2023-11-19T02:00:28;100269.19;;;7.16;80.84
75585;BME280;64162;53.508;10.476;2023-11-19T02:02:55;100241.97;;;7.31;80.59
75585;BME280;64162;53.508;10.476;2023-11-19T02:05:22;100240.63;;;7.09;81.38
75585;BME280;64162;53.508;10.476;2023-11-19T02:07:49;100259.78;;;7.24;80.95
75585;BME280;64162;53.508;10.476;2023-11-19T02:10:17;100256.75;;;7.47;79.36
75585;BME280;64162;53.508;10.476;2023-11-19T02:12:46;100241.88;;;7.41;80.11
75585;BME280;64162;53.508;10.476;2023-11-19T02:15:12;100243.44;;;7.51;79.80
75585;BME280;64162;53.508;10.476;2023-11-19T02:17:39;100247.59;;;7.70;78.72
75585;BME280;64162;53.508;10.476;2023-11-19T02:20:06;100244.41;;;7.32;79.92
75585;BME280;64162;53.508;10.476;2023-11-19T02:22:37;100248.00;;;7.40;80.21
75585;BME280;64162;53.508;10.476;2023-11-19T02:25:04;100242.03;;;7.57;79.32
75585;BME280;64162;53.508;10.476;2023-11-19T02:30:22;100224.44;;;7.34;80.07
75585;BME280;64162;53.508;10.476;2023-11-19T02:32:56;100213.91;;;7.63;79.49
75585;BME280;64162;53.508;10.476;2023-11-19T02:35:24;100191.97;;;7.59;79.85
75585;BME280;64162;53.508;10.476;2023-11-19T02:37:52;100186.72;;;7.43;80.08
75585;BME280;64162;53.508;10.476;2023-11-19T02:40:19;100182.25;;;7.27;80.79
75585;BME280;64162;53.508;10.476;2023-11-19T02:42:45;100177.25;;;7.69;79.17
75585;BME280;64162;53.508;10.476;2023-11-19T02:45:12;100167.81;;;7.60;79.39
75585;BME280;64162;53.508;10.476;2023-11-19T02:47:41;100162.03;;;7.58;80.18
75585;BME280;64162;53.508;10.476;2023-11-19T02:50:12;100161.69;;;7.36;80.45
75585;BME280;64162;53.508;10.476;2023-11-19T02:52:41;100151.03;;;7.82;78.62
75585;BME280;64162;53.508;10.476;2023-11-19T02:55:09;100147.31;;;7.51;80.03
75585;BME280;64162;53.508;10.476;2023-11-19T02:57:39;100120.56;;;7.69;79.83
75585;BME280;64162;53.508;10.476;2023-11-19T03:00:16;100120.69;;;7.68;79.62
75585;BME280;64162;53.508;10.476;2023-11-19T03:02:44;100120.66;;;7.34;80.63
75585;BME280;64162;53.508;10.476;2023-11-19T03:05:20;100098.09;;;7.62;79.98
75585;BME280;64162;53.508;10.476;2023-11-19T03:07:48;100106.75;;;7.79;79.25
75585;BME280;64162;53.508;10.476;2023-11-19T03:10:14;100095.03;;;7.58;79.72
75585;BME280;64162;53.508;10.476;2023-11-19T03:12:42;100098.94;;;7.70;79.49
75585;BME280;64162;53.508;10.476;2023-11-19T03:15:10;100100.09;;;7.76;79.46
75585;BME280;64162;53.508;10.476;2023-11-19T03:17:39;100081.47;;;7.82;79.24
75585;BME280;64162;53.508;10.476;2023-11-19T03:20:06;100057.44;;;7.73;79.48
75585;BME280;64162;53.508;10.476;2023-11-19T03:22:39;100067.78;;;7.90;79.33
75585;BME280;64162;53.508;10.476;2023-11-19T03:25:05;100075.06;;;7.60;80.22
75585;BME280;64162;53.508;10.476;2023-11-19T03:27:38;100094.25;;;7.66;79.63
75585;BME280;64162;53.508;10.476;2023-11-19T03:30:09;100082.34;;;7.65;80.47
75585;BME280;64162;53.508;10.476;2023-11-19T03:32:36;100071.47;;;7.79;80.12
75585;BME280;64162;53.508;10.476;2023-11-19T03:35:03;100065.97;;;7.74;79.66
75585;BME280;64162;53.508;10.476;2023-11-19T03:37:30;100059.06;;;7.83;79.57
75585;BME280;64162;53.508;10.476;2023-11-19T03:39:59;100054.91;;;7.56;81.20
75585;BME280;64162;53.508;10.476;2023-11-19T03:42:27;100047.34;;;7.96;80.12
75585;BME280;64162;53.508;10.476;2023-11-19T03:44:53;100045.69;;;7.79;80.70
75585;BME280;64162;53.508;10.476;2023-11-19T03:47:20;100032.47;;;7.82;79.94
75585;BME280;64162;53.508;10.476;2023-11-19T03:49:51;100032.75;;;7.63;80.91
75585;BME280;64162;53.508;10.476;2023-11-19T03:52:18;100017.03;;;7.82;80.34
75585;BME280;64162;53.508;10.476;2023-11-19T03:54:45;100019.59;;;7.74;80.43
75585;BME280;64162;53.508;10.476;2023-11-19T03:57:12;100004.00;;;7.84;80.11
75585;BME280;64162;53.508;10.476;2023-11-19T03:59:40;100004.34;;;7.97;80.14
75585;BME280;64162;53.508;10.476;2023-11-19T04:02:07;100012.91;;;8.13;79.23
75585;BME280;64162;53.508;10.476;2023-11-19T04:04:33;100018.38;;;7.94;80.64
75585;BME280;64162;53.508;10.476;2023-11-19T04:07:01;100012.94;;;8.22;79.35
75585;BME280;64162;53.508;10.476;2023-11-19T04:09:29;100016.84;;;8.34;78.93
75585;BME280;64162;53.508;10.476;2023-11-19T04:11:56;100006.56;;;8.50;78.53
75585;BME280;64162;53.508;10.476;2023-11-19T04:14:23;100013.25;;;8.18;80.70
75585;BME280;64162;53.508;10.476;2023-11-19T04:16:49;99992.13;;;8.15;80.11
75585;BME280;64162;53.508;10.476;2023-11-19T04:19:18;99978.75;;;8.28;80.33
75585;BME280;64162;53.508;10.476;2023-11-19T04:21:45;99992.13;;;8.15;80.07
75585;BME280;64162;53.508;10.476;2023-11-19T04:24:12;99982.16;;;8.28;79.89
75585;BME280;64162;53.508;10.476;2023-11-19T04:26:43;99973.28;;;8.23;80.22
75585;BME280;64162;53.508;10.476;2023-11-19T04:29:12;99975.28;;;8.45;79.58
75585;BME280;64162;53.508;10.476;2023-11-19T04:31:39;99972.50;;;8.38;80.19
75585;BME280;64162;53.508;10.476;2023-11-19T04:34:06;99968.59;;;8.18;80.27
75585;BME280;64162;53.508;10.476;2023-11-19T04:36:33;99963.28;;;8.19;80.99
75585;BME280;64162;53.508;10.476;2023-11-19T04:39:00;99959.13;;;8.59;79.33
75585;BME280;64162;53.508;10.476;2023-11-19T04:41:27;99963.94;;;8.13;80.75
75585;BME280;64162;53.508;10.476;2023-11-19T04:43:54;99964.28;;;8.51;79.46
75585;BME280;64162;53.508;10.476;2023-11-19T04:46:21;99948.78;;;8.51;79.87
75585;BME280;64162;53.508;10.476;2023-11-19T04:48:49;99957.22;;;8.45;79.58
75585;BME280;64162;53.508;10.476;2023-11-19T04:51:17;99949.94;;;8.48;79.78
75585;BME280;64162;53.508;10.476;2023-11-19T04:53:43;99945.09;;;8.53;79.37
75585;BME280;64162;53.508;10.476;2023-11-19T04:56:13;99936.34;;;8.71;78.63
75585;BME280;64162;53.508;10.476;2023-11-19T04:58:39;99947.66;;;8.45;79.97
75585;BME280;64162;53.508;10.476;2023-11-19T05:01:06;99940.09;;;8.60;79.82
75585;BME280;64162;53.508;10.476;2023-11-19T05:03:33;99942.69;;;8.52;79.79
75585;BME280;64162;53.508;10.476;2023-11-19T05:05:59;99931.25;;;8.54;79.36
75585;BME280;64162;53.508;10.476;2023-11-19T05:08:26;99936.41;;;8.54;79.89
75585;BME280;64162;53.508;10.476;2023-11-19T05:10:52;99934.41;;;8.81;78.98
75585;BME280;64162;53.508;10.476;2023-11-19T05:13:19;99936.88;;;8.58;79.86
75585;BME280;64162;53.508;10.476;2023-11-19T05:15:45;99903.25;;;8.82;79.57
75585;BME280;64162;53.508;10.476;2023-11-19T05:18:12;99924.13;;;8.40;80.71
75585;BME280;64162;53.508;10.476;2023-11-19T05:20:38;99896.25;;;8.36;81.41
75585;BME280;64162;53.508;10.476;2023-11-19T05:23:05;99912.16;;;8.72;80.02
75585;BME280;64162;53.508;10.476;2023-11-19T05:25:31;99929.28;;;8.40;81.54
75585;BME280;64162;53.508;10.476;2023-11-19T05:27:58;99907.88;;;8.40;81.32
75585;BME280;64162;53.508;10.476;2023-11-19T05:30:24;99897.81;;;8.61;81.05
75585;BME280;64162;53.508;10.476;2023-11-19T05:32:51;99903.22;;;8.90;80.08
75585;BME280;64162;53.508;10.476;2023-11-19T05:35:18;99890.50;;;8.81;80.23
75585;BME280;64162;53.508;10.476;2023-11-19T05:37:44;99894.56;;;8.83;80.88
75585;BME280;64162;53.508;10.476;2023-11-19T05:40:10;99893.22;;;8.95;80.69
75585;BME280;64162;53.508;10.476;2023-11-19T05:42:41;99896.53;;;9.20;79.84
75585;BME280;64162;53.508;10.476;2023-11-19T05:45:10;99876.75;;;9.04;80.62
75585;BME280;64162;53.508;10.476;2023-11-19T05:47:38;99882.53;;;9.37;79.92
75585;BME280;64162;53.508;10.476;2023-11-19T05:50:05;99888.88;;;9.35;79.90
75585;BME280;64162;53.508;10.476;2023-11-19T05:52:32;99886.81;;;9.30;80.41
75585;BME280;64162;53.508;10.476;2023-11-19T05:55:00;99892.44;;;9.26;80.71
75585;BME280;64162;53.508;10.476;2023-11-19T05:57:30;99884.31;;;9.68;78.95
75585;BME280;64162;53.508;10.476;2023-11-19T05:59:57;99882.69;;;9.67;79.60
75585;BME280;64162;53.508;10.476;2023-11-19T06:02:25;99887.84;;;9.44;80.23
75585;BME280;64162;53.508;10.476;2023-11-19T06:04:53;99886.59;;;9.63;79.74
75585;BME280;64162;53.508;10.476;2023-11-19T06:07:20;99874.03;;;9.82;79.01
75585;BME280;64162;53.508;10.476;2023-11-19T06:09:46;99880.78;;;10.06;78.31
75585;BME280;64162;53.508;10.476;2023-11-19T06:12:13;99881.88;;;9.66;79.47
75585;BME280;64162;53.508;10.476;2023-11-19T06:14:40;99883.63;;;9.97;79.59
75585;BME280;64162;53.508;10.476;2023-11-19T06:17:07;99885.00;;;9.84;79.77
75585;BME280;64162;53.508;10.476;2023-11-19T06:19:34;99882.59;;;10.06;77.79
75585;BME280;64162;53.508;10.476;2023-11-19T06:22:01;99866.06;;;9.69;79.84
75585;BME280;64162;53.508;10.476;2023-11-19T06:24:27;99881.78;;;10.05;80.25
75585;BME280;64162;53.508;10.476;2023-11-19T06:26:54;99876.84;;;10.18;79.49
75585;BME280;64162;53.508;10.476;2023-11-19T06:29:20;99870.63;;;10.05;80.13
75585;BME280;64162;53.508;10.476;2023-11-19T06:31:47;99885.78;;;10.08;79.68
75585;BME280;64162;53.508;10.476;2023-11-19T06:34:16;99882.34;;;10.15;79.76
75585;BME280;64162;53.508;10.476;2023-11-19T06:36:43;99864.88;;;10.17;79.87
75585;BME280;64162;53.508;10.476;2023-11-19T06:39:12;99884.13;;;10.15;80.27
75585;BME280;64162;53.508;10.476;2023-11-19T06:41:39;99866.03;;;9.92;82.20
75585;BME280;64162;53.508;10.476;2023-11-19T06:44:05;99868.25;;;10.55;79.96
75585;BME280;64162;53.508;10.476;2023-11-19T06:46:32;99880.63;;;10.08;82.50
75585;BME280;64162;53.508;10.476;2023-11-19T06:48:59;99887.88;;;10.35;82.30
75585;BME280;64162;53.508;10.476;2023-11-19T06:51:26;99882.44;;;10.45;82.63
75585;BME280;64162;53.508;10.476;2023-11-19T06:53:53;99895.94;;;10.69;80.95
75585;BME280;64162;53.508;10.476;2023-11-19T06:56:23;99890.59;;;10.71;82.41
75585;BME280;64162;53.508;10.476;2023-11-19T06:58:50;99884.25;;;10.73;81.37
75585;BME280;64162;53.508;10.476;2023-11-19T07:01:18;99871.72;;;10.62;82.81
75585;BME280;64162;53.508;10.476;2023-11-19T07:03:47;99882.47;;;10.89;82.03
75585;BME280;64162;53.508;10.476;2023-11-19T07:06:14;99879.25;;;11.01;82.02
75585;BME280;64162;53.508;10.476;2023-11-19T07:08:41;99876.25;;;11.19;80.73
75585;BME280;64162;53.508;10.476;2023-11-19T07:11:12;99877.53;;;11.08;81.39
75585;BME280;64162;53.508;10.476;2023-11-19T07:13:40;99870.72;;;11.22;79.96
75585;BME280;64162;53.508;10.476;2023-11-19T07:16:07;99879.31;;;11.08;81.59
75585;BME280;64162;53.508;10.476;2023-11-19T07:18:36;99866.09;;;11.03;82.81
75585;BME280;64162;53.508;10.476;2023-11-19T07:21:04;99884.75;;;11.13;82.23
75585;BME280;64162;53.508;10.476;2023-11-19T07:23:31;99879.53;;;11.28;82.73
75585;BME280;64162;53.508;10.476;2023-11-19T07:25:59;99880.09;;;11.23;83.90
75585;BME280;64162;53.508;10.476;2023-11-19T07:28:26;99867.78;;;11.25;83.31
75585;BME280;64162;53.508;10.476;2023-11-19T07:30:55;99869.19;;;11.28;82.54
75585;BME280;64162;53.508;10.476;2023-11-19T07:33:22;99882.16;;;11.13;83.09
75585;BME280;64162;53.508;10.476;2023-11-19T07:35:49;99880.53;;;11.41;83.43
75585;BME280;64162;53.508;10.476;2023-11-19T07:38:15;99883.91;;;11.27;82.62
75585;BME280;64162;53.508;10.476;2023-11-19T07:40:42;99881.47;;;11.55;83.38
75585;BME280;64162;53.508;10.476;2023-11-19T07:43:21;99869.72;;;11.59;83.26
75585;BME280;64162;53.508;10.476;2023-11-19T07:45:48;99873.72;;;11.40;83.98
75585;BME280;64162;53.508;10.476;2023-11-19T07:48:14;99884.47;;;11.58;83.46
75585;BME280;64162;53.508;10.476;2023-11-19T07:50:41;99874.22;;;11.86;81.88
75585;BME280;64162;53.508;10.476;2023-11-19T07:53:08;99881.00;;;11.87;82.16
75585;BME280;64162;53.508;10.476;2023-11-19T07:55:35;99899.34;;;11.86;82.83
75585;BME280;64162;53.508;10.476;2023-11-19T07:58:01;99897.94;;;12.04;81.97
75585;BME280;64162;53.508;10.476;2023-11-19T08:00:28;99884.16;;;11.83;82.62
75585;BME280;64162;53.508;10.476;2023-11-19T08:02:55;99896.28;;;11.97;83.35
75585;BME280;64162;53.508;10.476;2023-11-19T08:05:21;99899.72;;;12.04;82.47
75585;BME280;64162;53.508;10.476;2023-11-19T08:07:50;99901.19;;;12.13;82.90
75585;BME280;64162;53.508;10.476;2023-11-19T08:10:17;99896.44;;;12.17;82.17
75585;BME280;64162;53.508;10.476;2023-11-19T08:12:44;99901.56;;;12.10;82.96
75585;BME280;64162;53.508;10.476;2023-11-19T08:15:11;99892.22;;;12.16;82.60
75585;BME280;64162;53.508;10.476;2023-11-19T08:17:37;99900.06;;;12.22;82.78
75585;BME280;64162;53.508;10.476;2023-11-19T08:20:04;99895.06;;;12.48;82.09
75585;BME280;64162;53.508;10.476;2023-11-19T08:22:32;99906.44;;;12.47;81.85
75585;BME280;64162;53.508;10.476;2023-11-19T08:24:58;99905.66;;;12.47;82.22
75585;BME280;64162;53.508;10.476;2023-11-19T08:27:26;99917.03;;;12.46;81.71
75585;BME280;64162;53.508;10.476;2023-11-19T08:29:54;99915.47;;;12.52;82.10
75585;BME280;64162;53.508;10.476;2023-11-19T08:32:24;99919.75;;;12.38;82.14
75585;BME280;64162;53.508;10.476;2023-11-19T08:34:50;99917.38;;;12.36;82.49
75585;BME280;64162;53.508;10.476;2023-11-19T08:37:17;99920.13;;;12.35;82.69
75585;BME280;64162;53.508;10.476;2023-11-19T08:39:50;99926.22;;;12.48;82.03
75585;BME280;64162;53.508;10.476;2023-11-19T08:42:19;99928.97;;;12.40;82.00
75585;BME280;64162;53.508;10.476;2023-11-19T08:44:50;99924.19;;;12.44;81.80
75585;BME280;64162;53.508;10.476;2023-11-19T08:47:20;99923.41;;;12.43;82.20
75585;BME280;64162;53.508;10.476;2023-11-19T08:49:52;99918.09;;;12.30;82.50
75585;BME280;64162;53.508;10.476;2023-11-19T08:52:22;99922.09;;;12.33;82.31
75585;BME280;64162;53.508;10.476;2023-11-19T08:54:49;99913.16;;;12.35;82.32
75585;BME280;64162;53.508;10.476;2023-11-19T08:57:15;99920.38;;;12.40;81.47
75585;BME280;64162;53.508;10.476;2023-11-19T08:59:42;99917.63;;;12.48;81.97
75585;BME280;64162;53.508;10.476;2023-11-19T09:02:09;99922.66;;;12.50;81.89
75585;BME280;64162;53.508;10.476;2023-11-19T09:04:35;99939.91;;;12.57;81.98
75585;BME280;64162;53.508;10.476;2023-11-19T09:07:02;99930.41;;;12.71;81.49
75585;BME280;64162;53.508;10.476;2023-11-19T09:09:29;99921.03;;;12.48;81.86
75585;BME280;64162;53.508;10.476;2023-11-19T09:11:56;99929.78;;;12.41;82.15
75585;BME280;64162;53.508;10.476;2023-11-19T09:14:23;99925.78;;;12.66;81.17
75585;BME280;64162;53.508;10.476;2023-11-19T09:16:52;99938.66;;;12.81;80.48
75585;BME280;64162;53.508;10.476;2023-11-19T09:19:19;99928.09;;;12.82;80.48
75585;BME280;64162;53.508;10.476;2023-11-19T09:21:45;99939.19;;;12.70;81.07
75585;BME280;64162;53.508;10.476;2023-11-19T09:24:12;99951.88;;;12.58;81.06
75585;BME280;64162;53.508;10.476;2023-11-19T09:26:41;99939.13;;;12.91;80.48
75585;BME280;64162;53.508;10.476;2023-11-19T09:29:08;99925.38;;;12.69;80.83
75585;BME280;64162;53.508;10.476;2023-11-19T09:31:34;99930.41;;;12.71;80.48
75585;BME280;64162;53.508;10.476;2023-11-19T09:34:01;99935.13;;;12.61;80.37
75585;BME280;64162;53.508;10.476;2023-11-19T09:36:28;99932.81;;;12.72;80.65
75585;BME280;64162;53.508;10.476;2023-11-19T09:38:55;99941.72;;;12.91;79.27
75585;BME280;64162;53.508;10.476;2023-11-19T09:41:21;99939.97;;;12.70;80.98
75585;BME280;64162;53.508;10.476;2023-11-19T09:43:48;99922.31;;;12.94;80.21
75585;BME280;64162;53.508;10.476;2023-11-19T09:46:15;99922.09;;;12.82;80.56
75585;BME280;64162;53.508;10.476;2023-11-19T09:48:43;99938.03;;;12.79;80.08
75585;BME280;64162;53.508;10.476;2023-11-19T09:51:11;99951.69;;;12.60;80.07
75585;BME280;64162;53.508;10.476;2023-11-19T09:53:38;99944.84;;;12.80;79.88
75585;BME280;64162;53.508;10.476;2023-11-19T09:56:05;99946.28;;;12.89;79.84
75585;BME280;64162;53.508;10.476;2023-11-19T09:58:32;99940.50;;;12.94;79.80
75585;BME280;64162;53.508;10.476;2023-11-19T10:01:00;99953.66;;;12.85;79.54
75585;BME280;64162;53.508;10.476;2023-11-19T10:03:46;99947.50;;;12.86;80.09
75585;BME280;64162;53.508;10.476;2023-11-19T10:06:14;99950.09;;;12.93;79.22
75585;BME280;64162;53.508;10.476;2023-11-19T10:08:41;99940.28;;;13.16;77.94
75585;BME280;64162;53.508;10.476;2023-11-19T10:11:08;99926.72;;;13.21;78.31
75585;BME280;64162;53.508;10.476;2023-11-19T10:13:38;99939.25;;;13.52;77.90
75585;BME280;64162;53.508;10.476;2023-11-19T10:16:14;99929.56;;;14.19;75.33
75585;BME280;64162;53.508;10.476;2023-11-19T10:18:47;99928.56;;;14.07;75.11
75585;BME280;64162;53.508;10.476;2023-11-19T10:21:19;99932.75;;;13.35;76.96
75585;BME280;64162;53.508;10.476;2023-11-19T10:23:53;99945.63;;;13.49;76.09
75585;BME280;64162;53.508;10.476;2023-11-19T10:26:20;99927.25;;;13.64;76.47
75585;BME280;64162;53.508;10.476;2023-11-19T10:28:48;99938.00;;;13.07;76.23
75585;BME280;64162;53.508;10.476;2023-11-19T10:31:16;99928.53;;;13.33;76.71
75585;BME280;64162;53.508;10.476;2023-11-19T10:33:44;99931.09;;;13.20;75.94
75585;BME280;64162;53.508;10.476;2023-11-19T10:36:15;99929.41;;;13.06;77.16
75585;BME280;64162;53.508;10.476;2023-11-19T10:38:54;99931.09;;;13.20;76.24
75585;BME280;64162;53.508;10.476;2023-11-19T10:41:32;99933.94;;;13.25;76.51
75585;BME280;64162;53.508;10.476;2023-11-19T10:44:03;99937.16;;;13.27;76.32
75585;BME280;64162;53.508;10.476;2023-11-19T10:46:38;99934.31;;;13.22;76.26
75585;BME280;64162;53.508;10.476;2023-11-19T10:49:09;99949.34;;;13.27;75.73
75585;BME280;64162;53.508;10.476;2023-11-19T10:51:44;99947.53;;;13.27;76.25
75585;BME280;64162;53.508;10.476;2023-11-19T10:54:15;99950.28;;;13.19;76.74
75585;BME280;64162;53.508;10.476;2023-11-19T10:56:44;99949.81;;;13.09;76.63
75585;BME280;64162;53.508;10.476;2023-11-19T10:59:13;99948.19;;;13.36;76.23
75585;BME280;64162;53.508;10.476;2023-11-19T11:01:44;99953.56;;;13.35;76.92
75585;BME280;64162;53.508;10.476;2023-11-19T11:04:14;99959.06;;;13.18;76.97
75585;BME280;64162;53.508;10.476;2023-11-19T11:06:44;99954.00;;;13.10;77.21
75585;BME280;64162;53.508;10.476;2023-11-19T11:09:10;99956.78;;;13.02;77.54
75585;BME280;64162;53.508;10.476;2023-11-19T11:11:46;99967.34;;;13.01;77.43
75585;BME280;64162;53.508;10.476;2023-11-19T11:14:13;99955.34;;;13.00;77.63
75585;BME280;64162;53.508;10.476;2023-11-19T11:16:43;99961.69;;;13.18;77.40
75585;BME280;64162;53.508;10.476;2023-11-19T11:19:11;99959.22;;;13.10;78.17
75585;BME280;64162;53.508;10.476;2023-11-19T11:21:40;99964.66;;;13.15;77.72
75585;BME280;64162;53.508;10.476;2023-11-19T11:25:03;99966.47;;;13.15;78.42
75585;BME280;64162;53.508;10.476;2023-11-19T11:28:03;99958.53;;;12.95;78.34
75585;BME280;64162;53.508;10.476;2023-11-19T11:30:46;99971.34;;;13.03;77.66
75585;BME280;64162;53.508;10.476;2023-11-19T11:36:31;99970.00;;;12.52;79.04
75585;BME280;64162;53.508;10.476;2023-11-19T11:39:01;99971.97;;;12.71;78.61
75585;BME280;64162;53.508;10.476;2023-11-19T11:41:33;99967.28;;;12.87;77.94
75585;BME280;64162;53.508;10.476;2023-11-19T11:44:00;99966.50;;;12.94;77.92
75585;BME280;64162;53.508;10.476;2023-11-19T11:49:04;99987.34;;;13.00;78.05
75585;BME280;64162;53.508;10.476;2023-11-19T11:54:10;99969.47;;;12.63;79.83
75585;BME280;64162;53.508;10.476;2023-11-19T11:56:37;99973.81;;;12.77;78.76
75585;BME280;64162;53.508;10.476;2023-11-19T11:59:08;99977.84;;;12.86;79.12
75585;BME280;64162;53.508;10.476;2023-11-19T12:01:59;99964.44;;;12.82;79.65
75585;BME280;64162;53.508;10.476;2023-11-19T12:04:29;99982.25;;;12.85;78.91
75585;BME280;64162;53.508;10.476;2023-11-19T12:07:06;99981.25;;;12.86;78.94
75585;BME280;64162;53.508;10.476;2023-11-19T12:09:40;99969.91;;;12.94;79.09
75585;BME280;64162;53.508;10.476;2023-11-19T12:12:26;99969.88;;;13.15;77.91
75585;BME280;64162;53.508;10.476;2023-11-19T12:17:41;99975.47;;;13.12;78.89
75585;BME280;64162;53.508;10.476;2023-11-19T12:20:09;99969.97;;;13.01;78.23
75585;BME280;64162;53.508;10.476;2023-11-19T12:22:37;99959.22;;;13.10;78.62
75585;BME280;64162;53.508;10.476;2023-11-19T12:25:06;99970.94;;;13.27;78.35
75585;BME280;64162;53.508;10.476;2023-11-19T12:27:33;99968.41;;;13.41;78.19
75585;BME280;64162;53.508;10.476;2023-11-19T12:30:03;99963.47;;;13.18;77.83
75585;BME280;64162;53.508;10.476;2023-11-19T12:32:43;99956.63;;;13.51;77.11
75585;BME280;64162;53.508;10.476;2023-11-19T12:35:11;99965.22;;;13.45;77.65
75585;BME280;64162;53.508;10.476;2023-11-19T12:37:42;99943.81;;;13.50;76.43
75585;BME280;64162;53.508;10.476;2023-11-19T12:40:24;99962.72;;;13.24;77.11
75585;BME280;64162;53.508;10.476;2023-11-19T12:42:52;99955.56;;;13.39;76.63
75585;BME280;64162;53.508;10.476;2023-11-19T12:45:23;99947.63;;;13.47;75.97
75585;BME280;64162;53.508;10.476;2023-11-19T12:48:06;99957.00;;;13.42;77.15
75585;BME280;64162;53.508;10.476;2023-11-19T12:50:54;99963.16;;;13.34;76.77
75585;BME280;64162;53.508;10.476;2023-11-19T12:53:24;99949.94;;;13.29;76.79
75585;BME280;64162;53.508;10.476;2023-11-19T12:55:52;99965.13;;;13.25;76.44
75585;BME280;64162;53.508;10.476;2023-11-19T12:58:33;99962.88;;;12.88;78.34
75585;BME280;64162;53.508;10.476;2023-11-19T13:01:01;99968.59;;;12.77;79.61
75585;BME280;64162;53.508;10.476;2023-11-19T13:03:35;99956.03;;;12.80;79.26
75585;BME280;64162;53.508;10.476;2023-11-19T13:06:07;99964.56;;;13.02;78.38
75585;BME280;64162;53.508;10.476;2023-11-19T13:08:42;99947.88;;;13.18;77.99
75585;BME280;64162;53.508;10.476;2023-11-19T13:11:12;99958.41;;;13.10;78.18
75585;BME280;64162;53.508;10.476;2023-11-19T13:13:59;99956.97;;;13.01;77.82
75585;BME280;64162;53.508;10.476;2023-11-19T13:16:27;99937.00;;;13.08;77.86